sensor_id;sensor_type;location;lat;lon;timestamp;P1;durP1;ratioP1;P2;durP2;ratioP2
39502;SDS011;26970;49.900;10.774;2023-01-01T00:01:44;65.88;;;39.53;;
39502;SDS011;26970;49.900;10.774;2023-01-01T00:04:11;87.70;;;44.20;;
39502;SDS011;26970;49.900;10.774;2023-01-01T00:06:37;47.60;;;27.92;;
39502;SDS011;26970;49.900;10.774;2023-01-01T00:09:03;42.10;;;26.65;;
39502;SDS011;26970;49.900;10.774;2023-01-01T00:11:47;25.80;;;18.75;;
39502;SDS011;26970;49.900;10.774;2023-01-01T00:14:13;27.35;;;18.73;;
39502;SDS011;26970;49.900;10.774;2023-01-01T00:16:39;24.58;;;17.02;;
39502;SDS011;26970;49.900;10.774;2023-01-01T00:19:04;25.77;;;17.63;;
39502;SDS011;26970;49.900;10.774;2023-01-01T00:21:30;24.00;;;16.73;;
39502;SDS011;26970;49.900;10.774;2023-01-01T00:23:56;25.23;;;16.23;;
39502;SDS011;26970;49.900;10.774;2023-01-01T00:26:21;20.98;;;14.13;;
39502;SDS011;26970;49.900;10.774;2023-01-01T00:28:47;24.98;;;15.50;;
39502;SDS011;26970;49.900;10.774;2023-01-01T00:31:19;27.42;;;15.15;;
39502;SDS011;26970;49.900;10.774;2023-01-01T00:33:49;23.00;;;15.10;;
39502;SDS011;26970;49.900;10.774;2023-01-01T00:36:16;25.65;;;15.00;;
39502;SDS011;26970;49.900;10.774;2023-01-01T00:38:43;24.08;;;17.20;;
39502;SDS011;26970;49.900;10.774;2023-01-01T00:41:09;26.33;;;16.25;;
39502;SDS011;26970;49.900;10.774;2023-01-01T00:43:36;22.08;;;14.30;;
39502;SDS011;26970;49.900;10.774;2023-01-01T00:46:02;23.80;;;14.10;;
39502;SDS011;26970;49.900;10.774;2023-01-01T00:48:28;22.40;;;14.93;;
39502;SDS011;26970;49.900;10.774;2023-01-01T00:50:54;24.35;;;13.48;;
39502;SDS011;26970;49.900;10.774;2023-01-01T00:53:20;19.90;;;13.18;;
39502;SDS011;26970;49.900;10.774;2023-01-01T00:55:46;23.58;;;14.38;;
39502;SDS011;26970;49.900;10.774;2023-01-01T00:58:13;24.30;;;15.82;;
39502;SDS011;26970;49.900;10.774;2023-01-01T01:00:39;23.48;;;16.63;;
39502;SDS011;26970;49.900;10.774;2023-01-01T01:03:04;31.90;;;17.52;;
39502;SDS011;26970;49.900;10.774;2023-01-01T01:05:31;27.50;;;17.33;;
39502;SDS011;26970;49.900;10.774;2023-01-01T01:07:57;29.00;;;17.73;;
39502;SDS011;26970;49.900;10.774;2023-01-01T01:10:24;28.88;;;18.05;;
39502;SDS011;26970;49.900;10.774;2023-01-01T01:12:50;26.25;;;17.45;;
39502;SDS011;26970;49.900;10.774;2023-01-01T01:15:16;25.00;;;17.50;;
39502;SDS011;26970;49.900;10.774;2023-01-01T01:17:42;24.38;;;15.18;;
39502;SDS011;26970;49.900;10.774;2023-01-01T01:20:08;26.02;;;15.50;;
39502;SDS011;26970;49.900;10.774;2023-01-01T01:22:34;23.90;;;16.35;;
39502;SDS011;26970;49.900;10.774;2023-01-01T01:25:01;28.40;;;16.92;;
39502;SDS011;26970;49.900;10.774;2023-01-01T01:27:26;30.92;;;19.80;;
39502;SDS011;26970;49.900;10.774;2023-01-01T01:29:52;28.30;;;18.45;;
39502;SDS011;26970;49.900;10.774;2023-01-01T01:32:18;27.15;;;17.38;;
39502;SDS011;26970;49.900;10.774;2023-01-01T01:34:44;26.98;;;17.67;;
39502;SDS011;26970;49.900;10.774;2023-01-01T01:37:10;25.73;;;17.13;;
39502;SDS011;26970;49.900;10.774;2023-01-01T01:39:36;33.60;;;17.10;;
39502;SDS011;26970;49.900;10.774;2023-01-01T01:42:03;26.77;;;17.42;;
39502;SDS011;26970;49.900;10.774;2023-01-01T01:50:03;25.73;;;16.67;;
39502;SDS011;26970;49.900;10.774;2023-01-01T01:52:37;29.08;;;17.15;;
39502;SDS011;26970;49.900;10.774;2023-01-01T01:55:07;37.97;;;23.88;;
39502;SDS011;26970;49.900;10.774;2023-01-01T01:57:33;38.50;;;24.40;;
39502;SDS011;26970;49.900;10.774;2023-01-01T02:00:01;24.17;;;15.85;;
39502;SDS011;26970;49.900;10.774;2023-01-01T02:05:03;30.58;;;18.50;;
39502;SDS011;26970;49.900;10.774;2023-01-01T02:07:29;19.88;;;12.50;;
39502;SDS011;26970;49.900;10.774;2023-01-01T02:09:57;18.83;;;11.50;;
39502;SDS011;26970;49.900;10.774;2023-01-01T02:12:25;16.65;;;11.05;;
39502;SDS011;26970;49.900;10.774;2023-01-01T02:14:51;17.80;;;11.45;;
39502;SDS011;26970;49.900;10.774;2023-01-01T02:17:21;16.95;;;10.70;;
39502;SDS011;26970;49.900;10.774;2023-01-01T02:20:06;18.15;;;10.68;;
39502;SDS011;26970;49.900;10.774;2023-01-01T02:23:13;17.15;;;12.38;;
39502;SDS011;26970;49.900;10.774;2023-01-01T02:26:03;16.30;;;10.05;;
39502;SDS011;26970;49.900;10.774;2023-01-01T02:31:29;16.08;;;10.25;;
39502;SDS011;26970;49.900;10.774;2023-01-01T02:34:02;16.80;;;9.27;;
39502;SDS011;26970;49.900;10.774;2023-01-01T02:36:32;14.98;;;9.73;;
39502;SDS011;26970;49.900;10.774;2023-01-01T02:39:00;14.20;;;8.75;;
39502;SDS011;26970;49.900;10.774;2023-01-01T02:41:38;13.93;;;9.30;;
39502;SDS011;26970;49.900;10.774;2023-01-01T02:44:08;14.90;;;8.20;;
39502;SDS011;26970;49.900;10.774;2023-01-01T02:46:35;13.65;;;8.68;;
39502;SDS011;26970;49.900;10.774;2023-01-01T02:49:01;12.70;;;8.50;;
39502;SDS011;26970;49.900;10.774;2023-01-01T02:54:41;14.32;;;8.52;;
39502;SDS011;26970;49.900;10.774;2023-01-01T03:00:07;13.57;;;8.30;;
39502;SDS011;26970;49.900;10.774;2023-01-01T03:08:24;12.98;;;8.52;;
39502;SDS011;26970;49.900;10.774;2023-01-01T03:11:04;14.88;;;8.65;;
39502;SDS011;26970;49.900;10.774;2023-01-01T03:16:04;13.18;;;7.85;;
39502;SDS011;26970;49.900;10.774;2023-01-01T03:18:36;14.38;;;8.30;;
39502;SDS011;26970;49.900;10.774;2023-01-01T03:21:03;16.05;;;9.18;;
39502;SDS011;26970;49.900;10.774;2023-01-01T03:23:35;13.60;;;8.63;;
39502;SDS011;26970;49.900;10.774;2023-01-01T03:26:05;13.02;;;8.20;;
39502;SDS011;26970;49.900;10.774;2023-01-01T03:28:35;15.52;;;7.90;;
39502;SDS011;26970;49.900;10.774;2023-01-01T03:31:14;10.63;;;7.70;;
39502;SDS011;26970;49.900;10.774;2023-01-01T03:33:54;10.88;;;7.30;;
39502;SDS011;26970;49.900;10.774;2023-01-01T03:36:26;10.55;;;6.75;;
39502;SDS011;26970;49.900;10.774;2023-01-01T03:38:57;11.77;;;7.05;;
39502;SDS011;26970;49.900;10.774;2023-01-01T03:41:28;12.55;;;6.60;;
39502;SDS011;26970;49.900;10.774;2023-01-01T03:46:43;12.35;;;6.60;;
39502;SDS011;26970;49.900;10.774;2023-01-01T03:49:09;11.75;;;6.85;;
39502;SDS011;26970;49.900;10.774;2023-01-01T03:54:52;11.48;;;7.40;;
39502;SDS011;26970;49.900;10.774;2023-01-01T03:57:47;11.80;;;6.90;;
39502;SDS011;26970;49.900;10.774;2023-01-01T04:00:33;15.45;;;6.85;;
39502;SDS011;26970;49.900;10.774;2023-01-01T04:03:14;12.00;;;6.32;;
39502;SDS011;26970;49.900;10.774;2023-01-01T04:05:44;12.57;;;6.77;;
39502;SDS011;26970;49.900;10.774;2023-01-01T04:08:10;12.18;;;6.53;;
39502;SDS011;26970;49.900;10.774;2023-01-01T04:10:40;10.43;;;6.20;;
39502;SDS011;26970;49.900;10.774;2023-01-01T04:13:08;12.07;;;5.97;;
39502;SDS011;26970;49.900;10.774;2023-01-01T04:15:34;11.38;;;6.68;;
39502;SDS011;26970;49.900;10.774;2023-01-01T04:18:00;11.75;;;6.70;;
39502;SDS011;26970;49.900;10.774;2023-01-01T04:20:26;13.73;;;6.95;;
39502;SDS011;26970;49.900;10.774;2023-01-01T04:22:54;12.50;;;6.95;;
39502;SDS011;26970;49.900;10.774;2023-01-01T04:25:21;12.05;;;6.80;;
39502;SDS011;26970;49.900;10.774;2023-01-01T04:27:46;13.15;;;6.97;;
39502;SDS011;26970;49.900;10.774;2023-01-01T04:30:12;12.98;;;6.93;;
39502;SDS011;26970;49.900;10.774;2023-01-01T04:32:39;11.23;;;7.15;;
39502;SDS011;26970;49.900;10.774;2023-01-01T04:35:05;10.55;;;6.47;;
39502;SDS011;26970;49.900;10.774;2023-01-01T04:37:34;11.60;;;5.88;;
39502;SDS011;26970;49.900;10.774;2023-01-01T04:40:00;10.07;;;6.47;;
39502;SDS011;26970;49.900;10.774;2023-01-01T04:42:26;9.95;;;5.85;;
39502;SDS011;26970;49.900;10.774;2023-01-01T04:44:52;9.32;;;5.85;;
39502;SDS011;26970;49.900;10.774;2023-01-01T04:47:17;9.75;;;5.72;;
39502;SDS011;26970;49.900;10.774;2023-01-01T04:49:43;11.82;;;6.47;;
39502;SDS011;26970;49.900;10.774;2023-01-01T04:52:08;11.02;;;5.75;;
39502;SDS011;26970;49.900;10.774;2023-01-01T04:54:34;8.55;;;5.75;;
39502;SDS011;26970;49.900;10.774;2023-01-01T04:57:00;10.15;;;6.28;;
39502;SDS011;26970;49.900;10.774;2023-01-01T04:59:25;10.05;;;6.20;;
39502;SDS011;26970;49.900;10.774;2023-01-01T05:01:52;9.73;;;6.13;;
39502;SDS011;26970;49.900;10.774;2023-01-01T05:04:18;12.55;;;6.40;;
39502;SDS011;26970;49.900;10.774;2023-01-01T05:06:44;10.05;;;6.03;;
39502;SDS011;26970;49.900;10.774;2023-01-01T05:09:09;12.43;;;5.90;;
39502;SDS011;26970;49.900;10.774;2023-01-01T05:11:36;10.27;;;6.10;;
39502;SDS011;26970;49.900;10.774;2023-01-01T05:14:02;8.95;;;5.68;;
39502;SDS011;26970;49.900;10.774;2023-01-01T05:16:29;9.82;;;5.80;;
39502;SDS011;26970;49.900;10.774;2023-01-01T05:19:04;12.77;;;5.65;;
39502;SDS011;26970;49.900;10.774;2023-01-01T05:21:32;9.38;;;5.75;;
39502;SDS011;26970;49.900;10.774;2023-01-01T05:24:00;10.95;;;6.50;;
39502;SDS011;26970;49.900;10.774;2023-01-01T05:26:28;10.35;;;5.97;;
39502;SDS011;26970;49.900;10.774;2023-01-01T05:28:55;11.32;;;5.68;;
39502;SDS011;26970;49.900;10.774;2023-01-01T05:31:23;9.77;;;5.28;;
39502;SDS011;26970;49.900;10.774;2023-01-01T05:33:52;10.13;;;5.55;;
39502;SDS011;26970;49.900;10.774;2023-01-01T05:36:39;11.00;;;6.03;;
39502;SDS011;26970;49.900;10.774;2023-01-01T05:39:05;9.82;;;6.10;;
39502;SDS011;26970;49.900;10.774;2023-01-01T05:41:35;10.38;;;6.03;;
39502;SDS011;26970;49.900;10.774;2023-01-01T05:44:02;10.43;;;5.78;;
39502;SDS011;26970;49.900;10.774;2023-01-01T05:46:29;12.13;;;7.13;;
39502;SDS011;26970;49.900;10.774;2023-01-01T05:48:55;9.73;;;6.50;;
39502;SDS011;26970;49.900;10.774;2023-01-01T05:51:21;9.95;;;5.85;;
39502;SDS011;26970;49.900;10.774;2023-01-01T05:53:49;11.85;;;5.90;;
39502;SDS011;26970;49.900;10.774;2023-01-01T05:56:16;10.38;;;5.75;;
39502;SDS011;26970;49.900;10.774;2023-01-01T05:58:42;10.73;;;5.78;;
39502;SDS011;26970;49.900;10.774;2023-01-01T06:01:09;9.52;;;6.00;;
39502;SDS011;26970;49.900;10.774;2023-01-01T06:03:37;10.20;;;5.47;;
39502;SDS011;26970;49.900;10.774;2023-01-01T06:06:08;9.60;;;5.63;;
39502;SDS011;26970;49.900;10.774;2023-01-01T06:08:35;9.57;;;6.28;;
39502;SDS011;26970;49.900;10.774;2023-01-01T06:11:01;10.75;;;5.57;;
39502;SDS011;26970;49.900;10.774;2023-01-01T06:13:29;11.02;;;6.25;;
39502;SDS011;26970;49.900;10.774;2023-01-01T06:15:56;10.68;;;5.95;;
39502;SDS011;26970;49.900;10.774;2023-01-01T06:18:22;10.95;;;6.07;;
39502;SDS011;26970;49.900;10.774;2023-01-01T06:20:49;10.50;;;5.50;;
39502;SDS011;26970;49.900;10.774;2023-01-01T06:23:15;11.82;;;5.80;;
39502;SDS011;26970;49.900;10.774;2023-01-01T06:25:41;9.88;;;5.55;;
39502;SDS011;26970;49.900;10.774;2023-01-01T06:28:06;9.13;;;5.78;;
39502;SDS011;26970;49.900;10.774;2023-01-01T06:30:32;9.68;;;5.70;;
39502;SDS011;26970;49.900;10.774;2023-01-01T06:32:58;11.25;;;6.20;;
39502;SDS011;26970;49.900;10.774;2023-01-01T06:35:25;11.38;;;5.68;;
39502;SDS011;26970;49.900;10.774;2023-01-01T06:37:50;9.18;;;5.25;;
39502;SDS011;26970;49.900;10.774;2023-01-01T06:40:16;10.25;;;5.32;;
39502;SDS011;26970;49.900;10.774;2023-01-01T06:42:42;12.32;;;5.50;;
39502;SDS011;26970;49.900;10.774;2023-01-01T06:45:07;12.25;;;6.78;;
39502;SDS011;26970;49.900;10.774;2023-01-01T06:47:34;12.35;;;5.63;;
39502;SDS011;26970;49.900;10.774;2023-01-01T06:50:01;9.55;;;5.78;;
39502;SDS011;26970;49.900;10.774;2023-01-01T06:52:28;9.38;;;5.47;;
39502;SDS011;26970;49.900;10.774;2023-01-01T06:54:53;8.98;;;4.95;;
39502;SDS011;26970;49.900;10.774;2023-01-01T06:57:19;10.38;;;5.45;;
39502;SDS011;26970;49.900;10.774;2023-01-01T06:59:44;8.55;;;5.35;;
39502;SDS011;26970;49.900;10.774;2023-01-01T07:02:10;11.82;;;5.38;;
39502;SDS011;26970;49.900;10.774;2023-01-01T07:04:36;9.00;;;5.05;;
39502;SDS011;26970;49.900;10.774;2023-01-01T07:07:02;10.27;;;4.82;;
39502;SDS011;26970;49.900;10.774;2023-01-01T07:09:28;9.38;;;5.53;;
39502;SDS011;26970;49.900;10.774;2023-01-01T07:11:53;7.55;;;4.82;;
39502;SDS011;26970;49.900;10.774;2023-01-01T07:14:19;10.07;;;5.95;;
39502;SDS011;26970;49.900;10.774;2023-01-01T07:16:44;12.88;;;7.28;;
39502;SDS011;26970;49.900;10.774;2023-01-01T07:19:10;11.82;;;6.20;;
39502;SDS011;26970;49.900;10.774;2023-01-01T07:21:43;12.70;;;7.07;;
39502;SDS011;26970;49.900;10.774;2023-01-01T07:24:11;11.73;;;6.72;;
39502;SDS011;26970;49.900;10.774;2023-01-01T07:26:38;13.93;;;7.18;;
39502;SDS011;26970;49.900;10.774;2023-01-01T07:29:05;12.30;;;6.68;;
39502;SDS011;26970;49.900;10.774;2023-01-01T07:31:32;11.57;;;7.05;;
39502;SDS011;26970;49.900;10.774;2023-01-01T07:34:02;11.85;;;6.68;;
39502;SDS011;26970;49.900;10.774;2023-01-01T07:36:28;9.68;;;5.85;;
39502;SDS011;26970;49.900;10.774;2023-01-01T07:38:54;12.73;;;6.50;;
39502;SDS011;26970;49.900;10.774;2023-01-01T07:41:19;9.07;;;5.97;;
39502;SDS011;26970;49.900;10.774;2023-01-01T07:43:45;12.00;;;5.70;;
39502;SDS011;26970;49.900;10.774;2023-01-01T07:46:11;11.13;;;5.72;;
39502;SDS011;26970;49.900;10.774;2023-01-01T07:48:38;12.63;;;6.18;;
39502;SDS011;26970;49.900;10.774;2023-01-01T07:51:03;10.38;;;5.68;;
39502;SDS011;26970;49.900;10.774;2023-01-01T07:53:29;12.48;;;5.70;;
39502;SDS011;26970;49.900;10.774;2023-01-01T07:55:54;12.45;;;5.53;;
39502;SDS011;26970;49.900;10.774;2023-01-01T07:58:21;10.07;;;5.38;;
39502;SDS011;26970;49.900;10.774;2023-01-01T08:00:47;11.88;;;5.75;;
39502;SDS011;26970;49.900;10.774;2023-01-01T08:03:13;8.77;;;5.20;;
39502;SDS011;26970;49.900;10.774;2023-01-01T08:05:40;9.35;;;5.00;;
39502;SDS011;26970;49.900;10.774;2023-01-01T08:08:06;8.07;;;4.72;;
39502;SDS011;26970;49.900;10.774;2023-01-01T08:10:32;8.93;;;5.32;;
39502;SDS011;26970;49.900;10.774;2023-01-01T08:13:01;8.65;;;5.32;;
39502;SDS011;26970;49.900;10.774;2023-01-01T08:15:28;7.75;;;4.72;;
39502;SDS011;26970;49.900;10.774;2023-01-01T08:17:55;9.70;;;5.00;;
39502;SDS011;26970;49.900;10.774;2023-01-01T08:20:26;7.22;;;4.82;;
39502;SDS011;26970;49.900;10.774;2023-01-01T08:22:52;8.23;;;4.20;;
39502;SDS011;26970;49.900;10.774;2023-01-01T08:25:18;8.48;;;4.53;;
39502;SDS011;26970;49.900;10.774;2023-01-01T08:27:44;8.30;;;4.82;;
39502;SDS011;26970;49.900;10.774;2023-01-01T08:30:11;8.68;;;5.05;;
39502;SDS011;26970;49.900;10.774;2023-01-01T08:32:37;7.93;;;4.80;;
39502;SDS011;26970;49.900;10.774;2023-01-01T08:35:03;8.90;;;4.50;;
39502;SDS011;26970;49.900;10.774;2023-01-01T08:37:29;11.57;;;5.60;;
39502;SDS011;26970;49.900;10.774;2023-01-01T08:39:54;7.72;;;4.47;;
39502;SDS011;26970;49.900;10.774;2023-01-01T08:42:20;8.85;;;4.78;;
39502;SDS011;26970;49.900;10.774;2023-01-01T08:44:46;10.55;;;5.05;;
39502;SDS011;26970;49.900;10.774;2023-01-01T08:47:15;7.40;;;4.38;;
39502;SDS011;26970;49.900;10.774;2023-01-01T08:49:46;8.45;;;4.75;;
39502;SDS011;26970;49.900;10.774;2023-01-01T08:52:12;8.77;;;5.43;;
39502;SDS011;26970;49.900;10.774;2023-01-01T08:54:38;10.10;;;5.60;;
39502;SDS011;26970;49.900;10.774;2023-01-01T08:57:04;9.55;;;4.90;;
39502;SDS011;26970;49.900;10.774;2023-01-01T08:59:29;7.32;;;4.90;;
39502;SDS011;26970;49.900;10.774;2023-01-01T09:01:55;10.27;;;5.22;;
39502;SDS011;26970;49.900;10.774;2023-01-01T09:04:20;11.23;;;4.90;;
39502;SDS011;26970;49.900;10.774;2023-01-01T09:06:46;10.82;;;5.50;;
39502;SDS011;26970;49.900;10.774;2023-01-01T09:09:12;8.65;;;5.07;;
39502;SDS011;26970;49.900;10.774;2023-01-01T09:11:37;9.68;;;4.88;;
39502;SDS011;26970;49.900;10.774;2023-01-01T09:14:03;8.63;;;4.97;;
39502;SDS011;26970;49.900;10.774;2023-01-01T09:16:28;8.05;;;4.60;;
39502;SDS011;26970;49.900;10.774;2023-01-01T09:18:54;9.25;;;5.22;;
39502;SDS011;26970;49.900;10.774;2023-01-01T09:21:19;8.07;;;4.80;;
39502;SDS011;26970;49.900;10.774;2023-01-01T09:23:45;10.10;;;4.70;;
39502;SDS011;26970;49.900;10.774;2023-01-01T09:26:11;11.63;;;5.38;;
39502;SDS011;26970;49.900;10.774;2023-01-01T09:28:36;10.23;;;4.90;;
39502;SDS011;26970;49.900;10.774;2023-01-01T09:31:02;8.35;;;5.15;;
39502;SDS011;26970;49.900;10.774;2023-01-01T09:33:30;12.88;;;5.90;;
39502;SDS011;26970;49.900;10.774;2023-01-01T09:38:38;7.85;;;4.65;;
39502;SDS011;26970;49.900;10.774;2023-01-01T09:41:10;7.47;;;3.92;;
39502;SDS011;26970;49.900;10.774;2023-01-01T09:44:09;7.75;;;4.13;;
39502;SDS011;26970;49.900;10.774;2023-01-01T09:46:45;8.02;;;4.55;;
39502;SDS011;26970;49.900;10.774;2023-01-01T09:49:32;8.65;;;4.28;;
39502;SDS011;26970;49.900;10.774;2023-01-01T09:52:03;8.93;;;3.83;;
39502;SDS011;26970;49.900;10.774;2023-01-01T09:54:36;9.32;;;4.40;;
39502;SDS011;26970;49.900;10.774;2023-01-01T09:57:05;10.40;;;4.22;;
39502;SDS011;26970;49.900;10.774;2023-01-01T09:59:35;10.55;;;4.82;;
39502;SDS011;26970;49.900;10.774;2023-01-01T10:02:19;9.48;;;4.40;;
39502;SDS011;26970;49.900;10.774;2023-01-01T10:10:47;9.32;;;5.38;;
39502;SDS011;26970;49.900;10.774;2023-01-01T10:13:26;7.10;;;4.18;;
39502;SDS011;26970;49.900;10.774;2023-01-01T10:15:59;9.32;;;4.38;;
39502;SDS011;26970;49.900;10.774;2023-01-01T10:18:32;7.07;;;3.75;;
39502;SDS011;26970;49.900;10.774;2023-01-01T10:21:04;7.90;;;3.97;;
39502;SDS011;26970;49.900;10.774;2023-01-01T10:23:40;9.27;;;4.32;;
39502;SDS011;26970;49.900;10.774;2023-01-01T10:26:18;8.23;;;4.60;;
39502;SDS011;26970;49.900;10.774;2023-01-01T10:28:53;6.03;;;3.80;;
39502;SDS011;26970;49.900;10.774;2023-01-01T10:31:40;9.13;;;5.28;;
39502;SDS011;26970;49.900;10.774;2023-01-01T10:34:21;11.75;;;6.60;;
39502;SDS011;26970;49.900;10.774;2023-01-01T10:36:56;7.65;;;4.05;;
39502;SDS011;26970;49.900;10.774;2023-01-01T10:39:24;10.50;;;4.50;;
39502;SDS011;26970;49.900;10.774;2023-01-01T10:41:50;9.77;;;6.40;;
39502;SDS011;26970;49.900;10.774;2023-01-01T10:44:20;8.27;;;5.30;;
39502;SDS011;26970;49.900;10.774;2023-01-01T10:46:57;10.00;;;6.07;;
39502;SDS011;26970;49.900;10.774;2023-01-01T10:49:25;18.90;;;12.43;;
39502;SDS011;26970;49.900;10.774;2023-01-01T10:51:51;13.07;;;7.80;;
39502;SDS011;26970;49.900;10.774;2023-01-01T10:54:31;7.03;;;4.60;;
39502;SDS011;26970;49.900;10.774;2023-01-01T10:57:15;7.63;;;4.72;;
39502;SDS011;26970;49.900;10.774;2023-01-01T10:59:42;7.38;;;3.90;;
39502;SDS011;26970;49.900;10.774;2023-01-01T11:02:25;5.53;;;3.40;;
39502;SDS011;26970;49.900;10.774;2023-01-01T11:04:52;9.48;;;3.80;;
39502;SDS011;26970;49.900;10.774;2023-01-01T11:07:43;8.05;;;3.60;;
39502;SDS011;26970;49.900;10.774;2023-01-01T11:10:17;5.43;;;2.75;;
39502;SDS011;26970;49.900;10.774;2023-01-01T11:12:48;7.28;;;3.42;;
39502;SDS011;26970;49.900;10.774;2023-01-01T11:15:23;8.75;;;2.80;;
39502;SDS011;26970;49.900;10.774;2023-01-01T11:18:03;4.82;;;2.88;;
39502;SDS011;26970;49.900;10.774;2023-01-01T11:20:31;4.85;;;2.35;;
39502;SDS011;26970;49.900;10.774;2023-01-01T11:22:58;3.33;;;1.98;;
39502;SDS011;26970;49.900;10.774;2023-01-01T11:25:40;8.35;;;2.42;;
39502;SDS011;26970;49.900;10.774;2023-01-01T11:28:25;6.50;;;3.15;;
39502;SDS011;26970;49.900;10.774;2023-01-01T11:30:58;6.05;;;2.60;;
39502;SDS011;26970;49.900;10.774;2023-01-01T11:33:25;6.22;;;2.40;;
39502;SDS011;26970;49.900;10.774;2023-01-01T11:35:53;4.80;;;2.30;;
39502;SDS011;26970;49.900;10.774;2023-01-01T11:38:20;7.57;;;2.13;;
39502;SDS011;26970;49.900;10.774;2023-01-01T11:40:50;5.25;;;2.20;;
39502;SDS011;26970;49.900;10.774;2023-01-01T11:43:20;10.40;;;2.28;;
39502;SDS011;26970;49.900;10.774;2023-01-01T11:45:48;12.07;;;2.50;;
39502;SDS011;26970;49.900;10.774;2023-01-01T11:48:19;7.07;;;2.60;;
39502;SDS011;26970;49.900;10.774;2023-01-01T11:50:50;7.93;;;2.13;;
39502;SDS011;26970;49.900;10.774;2023-01-01T12:06:43;7.60;;;2.35;;
39502;SDS011;26970;49.900;10.774;2023-01-01T12:09:24;5.47;;;2.72;;
39502;SDS011;26970;49.900;10.774;2023-01-01T12:12:00;8.18;;;3.70;;
39502;SDS011;26970;49.900;10.774;2023-01-01T12:17:19;7.05;;;4.05;;
39502;SDS011;26970;49.900;10.774;2023-01-01T12:20:23;8.55;;;3.95;;
39502;SDS011;26970;49.900;10.774;2023-01-01T12:22:53;10.50;;;4.20;;
39502;SDS011;26970;49.900;10.774;2023-01-01T12:25:19;6.60;;;3.45;;
39502;SDS011;26970;49.900;10.774;2023-01-01T12:30:24;7.75;;;3.50;;
39502;SDS011;26970;49.900;10.774;2023-01-01T12:33:16;12.25;;;3.42;;
39502;SDS011;26970;49.900;10.774;2023-01-01T12:35:56;7.53;;;3.47;;
39502;SDS011;26970;49.900;10.774;2023-01-01T12:38:46;7.63;;;3.42;;
39502;SDS011;26970;49.900;10.774;2023-01-01T12:52:27;7.28;;;3.42;;
39502;SDS011;26970;49.900;10.774;2023-01-01T12:57:39;7.60;;;3.75;;
39502;SDS011;26970;49.900;10.774;2023-01-01T13:00:11;6.18;;;2.80;;
39502;SDS011;26970;49.900;10.774;2023-01-01T13:02:44;7.95;;;3.75;;
39502;SDS011;26970;49.900;10.774;2023-01-01T13:05:36;8.70;;;4.30;;
39502;SDS011;26970;49.900;10.774;2023-01-01T13:08:05;9.13;;;3.88;;
39502;SDS011;26970;49.900;10.774;2023-01-01T13:10:32;7.47;;;3.55;;
39502;SDS011;26970;49.900;10.774;2023-01-01T13:13:01;6.50;;;3.03;;
39502;SDS011;26970;49.900;10.774;2023-01-01T13:18:05;7.28;;;2.95;;
39502;SDS011;26970;49.900;10.774;2023-01-01T13:20:42;7.70;;;3.75;;
39502;SDS011;26970;49.900;10.774;2023-01-01T13:28:41;7.55;;;3.80;;
39502;SDS011;26970;49.900;10.774;2023-01-01T13:31:08;7.47;;;4.57;;
39502;SDS011;26970;49.900;10.774;2023-01-01T13:33:33;8.95;;;5.18;;
39502;SDS011;26970;49.900;10.774;2023-01-01T13:38:45;9.52;;;4.65;;
39502;SDS011;26970;49.900;10.774;2023-01-01T13:41:39;10.27;;;3.88;;
39502;SDS011;26970;49.900;10.774;2023-01-01T13:49:13;7.25;;;4.20;;
39502;SDS011;26970;49.900;10.774;2023-01-01T13:51:50;7.53;;;4.57;;
39502;SDS011;26970;49.900;10.774;2023-01-01T14:00:20;8.85;;;4.13;;
39502;SDS011;26970;49.900;10.774;2023-01-01T14:03:07;7.53;;;3.88;;
39502;SDS011;26970;49.900;10.774;2023-01-01T14:05:43;5.60;;;3.45;;
39502;SDS011;26970;49.900;10.774;2023-01-01T14:08:27;7.63;;;3.90;;
39502;SDS011;26970;49.900;10.774;2023-01-01T14:10:55;7.75;;;3.80;;
39502;SDS011;26970;49.900;10.774;2023-01-01T14:13:22;8.10;;;4.05;;
39502;SDS011;26970;49.900;10.774;2023-01-01T14:15:59;7.30;;;4.88;;
39502;SDS011;26970;49.900;10.774;2023-01-01T14:18:35;8.48;;;3.75;;
39502;SDS011;26970;49.900;10.774;2023-01-01T14:21:07;9.68;;;4.13;;
39502;SDS011;26970;49.900;10.774;2023-01-01T14:23:41;9.32;;;4.00;;
39502;SDS011;26970;49.900;10.774;2023-01-01T14:26:09;8.35;;;4.78;;
39502;SDS011;26970;49.900;10.774;2023-01-01T14:28:37;10.15;;;4.07;;
39502;SDS011;26970;49.900;10.774;2023-01-01T14:31:05;11.07;;;3.55;;
39502;SDS011;26970;49.900;10.774;2023-01-01T14:33:37;8.82;;;3.72;;
39502;SDS011;26970;49.900;10.774;2023-01-01T14:36:05;8.18;;;3.88;;
39502;SDS011;26970;49.900;10.774;2023-01-01T14:38:44;8.68;;;4.15;;
39502;SDS011;26970;49.900;10.774;2023-01-01T14:43:46;7.72;;;4.30;;
39502;SDS011;26970;49.900;10.774;2023-01-01T14:46:14;6.43;;;3.78;;
39502;SDS011;26970;49.900;10.774;2023-01-01T14:48:43;8.77;;;4.03;;
39502;SDS011;26970;49.900;10.774;2023-01-01T14:51:12;9.70;;;4.45;;
39502;SDS011;26970;49.900;10.774;2023-01-01T14:53:40;6.15;;;3.53;;
39502;SDS011;26970;49.900;10.774;2023-01-01T14:56:08;7.25;;;4.40;;
39502;SDS011;26970;49.900;10.774;2023-01-01T14:58:33;6.25;;;3.30;;
39502;SDS011;26970;49.900;10.774;2023-01-01T15:01:13;9.10;;;4.20;;
39502;SDS011;26970;49.900;10.774;2023-01-01T15:03:55;8.00;;;3.45;;
39502;SDS011;26970;49.900;10.774;2023-01-01T15:06:23;7.05;;;3.50;;
39502;SDS011;26970;49.900;10.774;2023-01-01T15:08:50;8.27;;;3.63;;
39502;SDS011;26970;49.900;10.774;2023-01-01T15:11:16;7.60;;;4.20;;
39502;SDS011;26970;49.900;10.774;2023-01-01T15:13:55;12.80;;;4.72;;
39502;SDS011;26970;49.900;10.774;2023-01-01T15:16:26;8.68;;;3.95;;
39502;SDS011;26970;49.900;10.774;2023-01-01T15:18:52;9.23;;;4.35;;
39502;SDS011;26970;49.900;10.774;2023-01-01T15:24:15;9.65;;;4.88;;
39502;SDS011;26970;49.900;10.774;2023-01-01T15:26:51;8.60;;;4.18;;
39502;SDS011;26970;49.900;10.774;2023-01-01T15:29:27;7.35;;;4.25;;
39502;SDS011;26970;49.900;10.774;2023-01-01T15:31:54;12.18;;;6.28;;
39502;SDS011;26970;49.900;10.774;2023-01-01T15:34:25;8.90;;;5.22;;
39502;SDS011;26970;49.900;10.774;2023-01-01T15:36:55;8.98;;;4.95;;
39502;SDS011;26970;49.900;10.774;2023-01-01T15:39:30;10.88;;;4.40;;
39502;SDS011;26970;49.900;10.774;2023-01-01T15:41:56;9.73;;;4.30;;
39502;SDS011;26970;49.900;10.774;2023-01-01T15:44:26;9.05;;;4.60;;
39502;SDS011;26970;49.900;10.774;2023-01-01T15:47:02;9.48;;;4.65;;
39502;SDS011;26970;49.900;10.774;2023-01-01T15:49:30;7.43;;;4.30;;
39502;SDS011;26970;49.900;10.774;2023-01-01T15:51:58;9.63;;;4.63;;
39502;SDS011;26970;49.900;10.774;2023-01-01T15:54:29;8.63;;;4.40;;
39502;SDS011;26970;49.900;10.774;2023-01-01T15:56:58;7.80;;;4.25;;
39502;SDS011;26970;49.900;10.774;2023-01-01T15:59:25;8.43;;;4.45;;
39502;SDS011;26970;49.900;10.774;2023-01-01T16:02:01;13.70;;;6.00;;
39502;SDS011;26970;49.900;10.774;2023-01-01T16:04:38;8.70;;;4.03;;
39502;SDS011;26970;49.900;10.774;2023-01-01T16:07:13;8.40;;;4.47;;
39502;SDS011;26970;49.900;10.774;2023-01-01T16:12:07;8.70;;;4.28;;
39502;SDS011;26970;49.900;10.774;2023-01-01T16:14:33;10.50;;;5.00;;
39502;SDS011;26970;49.900;10.774;2023-01-01T16:16:59;13.70;;;3.60;;
39502;SDS011;26970;49.900;10.774;2023-01-01T16:19:26;7.65;;;3.92;;
39502;SDS011;26970;49.900;10.774;2023-01-01T16:21:53;9.65;;;4.32;;
39502;SDS011;26970;49.900;10.774;2023-01-01T16:24:19;8.18;;;3.90;;